createdAt,value
2022-08-25T00:02:05.076Z,24.58
2022-08-25T00:04:35.444Z,24.52
2022-08-25T00:07:05.720Z,24.60
2022-08-25T00:09:35.274Z,24.20
2022-08-25T00:12:05.066Z,24.42
2022-08-25T00:14:35.972Z,24.37
2022-08-25T00:17:06.719Z,24.32
2022-08-25T00:19:36.881Z,24.45
2022-08-25T00:22:05.407Z,24.43
2022-08-25T00:24:33.130Z,24.52
2022-08-25T00:27:01.923Z,24.20
2022-08-25T00:29:31.354Z,24.08
2022-08-25T00:31:59.496Z,24.03
2022-08-25T00:34:33.585Z,23.96
2022-08-25T00:37:04.172Z,23.75
2022-08-25T00:39:31.918Z,24.19
2022-08-25T00:42:00.175Z,24.24
2022-08-25T00:44:30.216Z,24.15
2022-08-25T00:47:01.111Z,23.84
2022-08-25T00:49:39.228Z,23.85
2022-08-25T00:52:18.243Z,23.97
2022-08-25T00:54:52.376Z,23.66
2022-08-25T00:57:34.514Z,23.70
2022-08-25T01:00:15.836Z,23.77
2022-08-25T01:02:43.716Z,23.92
2022-08-25T01:05:12.659Z,24.04
2022-08-25T01:07:43.615Z,24.04
2022-08-25T01:10:14.097Z,23.91
2022-08-25T01:12:42.092Z,23.82
2022-08-25T01:15:12.184Z,23.99
2022-08-25T01:17:50.382Z,23.92
2022-08-25T01:20:20.789Z,24.06
2022-08-25T01:22:55.208Z,24.08
2022-08-25T01:25:35.215Z,23.75
2022-08-25T01:28:05.309Z,23.95
2022-08-25T01:30:33.765Z,23.97
2022-08-25T01:33:07.469Z,23.65
2022-08-25T01:35:36.576Z,24.11
2022-08-25T01:38:05.719Z,24.02
2022-08-25T01:40:35.271Z,23.67
2022-08-25T01:43:15.168Z,23.76
2022-08-25T01:45:47.305Z,23.68
2022-08-25T01:48:16.319Z,23.63
2022-08-25T01:50:44.312Z,23.48
2022-08-25T01:53:19.976Z,23.61
2022-08-25T01:56:01.371Z,23.85
2022-08-25T01:58:36.137Z,23.66
2022-08-25T02:01:08.565Z,23.75
2022-08-25T02:03:42.368Z,23.69
2022-08-25T02:06:14.849Z,23.60
2022-08-25T02:08:43.626Z,23.48
2022-08-25T02:11:13.903Z,23.55
2022-08-25T02:13:42.255Z,23.54
2022-08-25T02:16:15.204Z,23.54
2022-08-25T02:18:43.224Z,23.61
2022-08-25T02:21:11.466Z,23.46
2022-08-25T02:23:39.055Z,23.37
2022-08-25T02:26:07.059Z,23.26
2022-08-25T02:28:35.120Z,23.43
2022-08-25T02:31:04.494Z,23.38
2022-08-25T02:33:32.481Z,23.44
2022-08-25T02:36:02.072Z,23.52
2022-08-25T02:38:29.968Z,23.50
2022-08-25T02:40:59.907Z,23.50
2022-08-25T02:43:29.181Z,23.55
2022-08-25T02:45:56.933Z,23.66
2022-08-25T02:48:25.008Z,23.59
2022-08-25T02:50:54.093Z,23.72
2022-08-25T02:53:21.880Z,23.65
2022-08-25T02:55:49.991Z,23.54
2022-08-25T02:58:17.870Z,23.56
2022-08-25T03:00:47.285Z,23.45
2022-08-25T03:03:15.440Z,23.52
2022-08-25T03:05:43.652Z,23.52
2022-08-25T03:08:11.600Z,23.55
2022-08-25T03:10:39.871Z,23.52
2022-08-25T03:13:07.667Z,23.53
2022-08-25T03:15:37.950Z,23.48
2022-08-25T03:18:08.643Z,23.29
2022-08-25T03:20:36.470Z,23.18
2022-08-25T03:23:05.442Z,23.19
2022-08-25T03:25:52.572Z,23.23
2022-08-25T03:28:28.931Z,23.20
2022-08-25T03:30:59.212Z,23.41
2022-08-25T03:33:28.654Z,23.33
2022-08-25T03:35:56.926Z,23.29
2022-08-25T03:38:25.968Z,23.45
2022-08-25T03:40:54.385Z,23.30
2022-08-25T03:43:22.237Z,23.21
2022-08-25T03:45:50.203Z,23.24
2022-08-25T03:48:18.179Z,23.11
2022-08-25T03:50:50.763Z,23.19
2022-08-25T03:53:20.738Z,23.15
2022-08-25T03:55:48.626Z,22.91
2022-08-25T03:58:17.109Z,23.07
2022-08-25T04:00:45.103Z,23.08
2022-08-25T04:03:13.112Z,23.13
2022-08-25T04:05:40.938Z,23.15
2022-08-25T04:08:09.277Z,23.13
2022-08-25T04:10:37.707Z,23.09
2022-08-25T04:13:06.589Z,23.14
2022-08-25T04:15:34.576Z,23.20
2022-08-25T04:18:03.394Z,23.09
2022-08-25T04:20:31.025Z,23.34
2022-08-25T04:23:01.340Z,23.44
2022-08-25T04:25:29.148Z,23.47
2022-08-25T04:27:57.394Z,23.33
2022-08-25T04:30:25.102Z,23.77
2022-08-25T04:32:53.075Z,23.97
2022-08-25T04:35:22.316Z,23.84
2022-08-25T04:37:50.040Z,24.25
2022-08-25T04:40:18.346Z,24.34
2022-08-25T04:42:48.173Z,24.53
2022-08-25T04:45:16.074Z,24.35
2022-08-25T04:47:44.161Z,24.53
2022-08-25T04:50:11.856Z,24.88
2022-08-25T04:52:39.863Z,24.95
2022-08-25T04:55:08.095Z,25.37
2022-08-25T04:57:36.034Z,25.19
2022-08-25T05:00:05.027Z,25.27
2022-08-25T05:02:32.990Z,25.49
2022-08-25T05:05:01.506Z,25.67
2022-08-25T05:07:29.210Z,25.79
2022-08-25T05:09:57.172Z,26.04
2022-08-25T05:12:24.858Z,25.99
2022-08-25T05:14:53.977Z,26.31
2022-08-25T05:17:22.518Z,25.89
2022-08-25T05:19:50.285Z,26.36
2022-08-25T05:22:18.438Z,26.46
2022-08-25T05:24:46.543Z,26.55
2022-08-25T05:27:14.286Z,26.52
2022-08-25T05:29:41.918Z,26.74
2022-08-25T05:32:10.162Z,26.85
2022-08-25T05:34:38.288Z,27.07
2022-08-25T05:37:08.287Z,27.00
2022-08-25T05:39:39.588Z,27.01
2022-08-25T05:42:07.528Z,27.15
2022-08-25T05:44:35.210Z,26.85
2022-08-25T05:47:03.191Z,27.09
2022-08-25T05:49:30.842Z,27.15
2022-08-25T05:51:58.579Z,27.22
2022-08-25T05:54:27.006Z,27.12
2022-08-25T05:56:54.781Z,27.46
2022-08-25T05:59:22.493Z,27.53
2022-08-25T06:02:12.749Z,27.64
2022-08-25T06:04:41.395Z,27.92
2022-08-25T06:07:09.638Z,27.99
2022-08-25T06:09:41.911Z,27.83
2022-08-25T06:12:09.903Z,27.89
2022-08-25T06:14:40.158Z,28.06
2022-08-25T06:17:07.701Z,27.72
2022-08-25T06:19:35.798Z,28.16
2022-08-25T06:22:07.548Z,28.11
2022-08-25T06:24:36.020Z,28.45
2022-08-25T06:27:03.856Z,28.23
2022-08-25T06:29:31.714Z,27.95
2022-08-25T06:31:59.792Z,27.69
2022-08-25T06:34:27.412Z,28.12
2022-08-25T06:36:55.128Z,28.15
2022-08-25T06:39:24.398Z,28.42
2022-08-25T06:41:53.974Z,28.61
2022-08-25T06:44:23.115Z,28.50
2022-08-25T06:46:51.550Z,28.55
2022-08-25T06:49:19.298Z,28.73
2022-08-25T06:51:47.258Z,28.50
2022-08-25T06:54:15.434Z,28.62
2022-08-25T06:56:43.204Z,28.95
2022-08-25T06:59:11.561Z,29.07
2022-08-25T07:01:39.807Z,29.14
2022-08-25T07:04:11.848Z,29.22
2022-08-25T07:06:42.009Z,29.37
2022-08-25T07:09:11.480Z,29.31
2022-08-25T07:11:41.590Z,29.52
2022-08-25T07:14:11.846Z,29.61
2022-08-25T07:16:42.425Z,29.74
2022-08-25T07:19:14.761Z,29.96
2022-08-25T07:21:45.803Z,29.95
2022-08-25T07:24:14.473Z,29.94
2022-08-25T07:26:43.580Z,30.25
2022-08-25T07:29:14.295Z,30.00
2022-08-25T07:31:42.705Z,30.44
2022-08-25T07:34:29.504Z,30.40
2022-08-25T07:36:58.106Z,30.74
2022-08-25T07:39:26.748Z,30.92
2022-08-25T07:41:57.384Z,30.95
2022-08-25T07:44:27.913Z,31.09
2022-08-25T07:46:56.680Z,31.00
2022-08-25T07:49:36.222Z,31.19
2022-08-25T07:52:09.018Z,31.05
2022-08-25T07:54:38.090Z,31.24
2022-08-25T07:57:08.190Z,30.98
2022-08-25T07:59:40.438Z,31.18
2022-08-25T08:02:18.468Z,31.52
2022-08-25T08:04:50.161Z,31.70
2022-08-25T08:07:25.805Z,31.47
2022-08-25T08:13:02.183Z,31.92
2022-08-25T08:15:30.703Z,31.77
2022-08-25T08:17:59.773Z,31.58
2022-08-25T08:20:29.006Z,31.90
2022-08-25T08:22:57.209Z,31.84
2022-08-25T08:25:26.769Z,31.91
2022-08-25T08:27:56.317Z,31.91
2022-08-25T08:30:26.459Z,32.03
2022-08-25T08:33:11.261Z,32.04
2022-08-25T08:35:41.825Z,31.86
2022-08-25T08:38:16.027Z,31.80
2022-08-25T08:44:47.909Z,32.05
2022-08-25T08:47:28.036Z,32.58
2022-08-25T08:50:05.078Z,32.55
2022-08-25T08:52:46.110Z,32.43
2022-08-25T08:55:37.065Z,32.44
2022-08-25T08:58:19.831Z,32.66
2022-08-25T09:00:58.417Z,32.73
2022-08-25T09:03:40.529Z,32.72
2022-08-25T09:06:24.586Z,32.89
2022-08-25T09:08:55.647Z,32.92
2022-08-25T09:11:42.122Z,32.80
2022-08-25T09:14:34.066Z,32.89
2022-08-25T09:17:27.007Z,32.94
2022-08-25T09:20:18.758Z,33.12
2022-08-25T09:22:56.480Z,32.80
2022-08-25T09:25:54.066Z,33.25
2022-08-25T09:28:37.158Z,33.16
2022-08-25T09:31:24.355Z,33.42
2022-08-25T09:33:57.934Z,33.00
2022-08-25T09:36:26.920Z,33.35
2022-08-25T09:38:54.613Z,33.24
2022-08-25T09:41:47.100Z,33.19
2022-08-25T09:44:20.981Z,33.67
2022-08-25T09:47:02.124Z,33.89
2022-08-25T09:49:41.637Z,33.92
2022-08-25T09:52:31.941Z,34.14
2022-08-25T09:55:05.087Z,34.25
2022-08-25T09:57:44.726Z,34.29
2022-08-25T10:00:21.951Z,34.29
2022-08-25T10:03:14.084Z,34.11
2022-08-25T10:05:46.319Z,34.54
2022-08-25T10:08:32.868Z,34.63
2022-08-25T10:11:05.139Z,34.17
2022-08-25T10:13:51.431Z,34.26
2022-08-25T10:16:27.007Z,34.33
2022-08-25T10:19:02.377Z,34.13
2022-08-25T10:21:30.424Z,34.47
2022-08-25T10:24:01.661Z,34.28
2022-08-25T10:26:44.654Z,34.50
2022-08-25T10:29:35.940Z,34.27
2022-08-25T10:32:21.660Z,34.52
2022-08-25T10:34:51.362Z,34.60
2022-08-25T10:37:39.836Z,34.48
2022-08-25T10:40:21.796Z,34.62
2022-08-25T10:42:55.124Z,34.55
2022-08-25T10:45:43.669Z,34.36
2022-08-25T10:48:23.616Z,34.64
2022-08-25T10:51:18.855Z,34.23
2022-08-25T10:54:10.982Z,34.55
2022-08-25T10:56:42.871Z,34.16
2022-08-25T10:59:57.813Z,34.61
2022-08-25T11:02:38.409Z,34.09
2022-08-25T11:05:26.790Z,34.75
2022-08-25T11:08:14.509Z,34.78
2022-08-25T11:10:53.103Z,34.68
2022-08-25T11:13:31.833Z,35.09
2022-08-25T11:16:18.880Z,34.91
2022-08-25T11:19:05.419Z,34.59
2022-08-25T11:21:54.839Z,34.91
2022-08-25T11:24:49.214Z,34.77
2022-08-25T11:27:47.265Z,35.02
2022-08-25T11:30:18.741Z,34.72
2022-08-25T11:32:53.024Z,34.42
2022-08-25T11:35:30.337Z,34.55
2022-08-25T11:37:58.053Z,34.69
2022-08-25T11:40:50.465Z,34.94
2022-08-25T11:43:42.953Z,34.75
2022-08-25T11:46:48.976Z,34.55
2022-08-25T11:49:39.730Z,34.82
2022-08-25T11:52:34.524Z,34.54
2022-08-25T11:55:43.691Z,34.78
2022-08-25T11:58:44.907Z,34.51
2022-08-25T12:01:44.243Z,34.59
2022-08-25T12:04:30.963Z,34.37
2022-08-25T12:07:11.188Z,34.65
2022-08-25T12:09:51.405Z,34.60
2022-08-25T12:12:28.459Z,34.27
2022-08-25T12:15:15.048Z,34.16
2022-08-25T12:17:42.799Z,34.44
2022-08-25T12:20:11.175Z,34.30
2022-08-25T12:22:41.753Z,34.41
2022-08-25T12:25:28.885Z,34.30
2022-08-25T12:28:14.801Z,34.11
2022-08-25T12:30:57.068Z,34.37
2022-08-25T12:33:59.482Z,34.17
2022-08-25T12:36:33.615Z,34.32
2022-08-25T12:39:17.285Z,34.27
2022-08-25T12:41:58.687Z,34.32
2022-08-25T12:45:09.657Z,34.39
2022-08-25T12:47:41.849Z,34.26
2022-08-25T12:50:33.404Z,34.37
2022-08-25T12:53:19.109Z,34.25
2022-08-25T12:55:51.680Z,34.30
2022-08-25T12:58:20.307Z,34.24
2022-08-25T13:01:35.577Z,33.79
2022-08-25T13:04:23.153Z,34.22
2022-08-25T13:07:18.197Z,34.27
2022-08-25T13:09:58.768Z,33.93
2022-08-25T13:12:44.853Z,34.16
2022-08-25T13:15:25.258Z,34.29
2022-08-25T13:17:53.381Z,34.37
2022-08-25T13:20:29.295Z,34.08
2022-08-25T13:23:00.944Z,34.06
2022-08-25T13:25:32.420Z,34.12
2022-08-25T13:28:06.491Z,34.04
2022-08-25T13:30:39.444Z,34.00
2022-08-25T13:33:23.939Z,33.97
2022-08-25T13:36:14.559Z,33.77
2022-08-25T13:38:45.799Z,33.57
2022-08-25T13:41:20.632Z,34.10
2022-08-25T13:43:48.471Z,33.97
2022-08-25T13:46:22.379Z,34.11
2022-08-25T13:48:50.355Z,34.28
2022-08-25T13:51:22.574Z,34.21
2022-08-25T13:53:58.429Z,34.06
2022-08-25T13:56:39.978Z,33.76
2022-08-25T13:59:24.585Z,34.03
2022-08-25T14:01:55.380Z,33.78
2022-08-25T14:04:50.887Z,34.05
2022-08-25T14:07:22.826Z,34.09
2022-08-25T14:10:08.759Z,33.98
2022-08-25T14:12:41.398Z,33.65
2022-08-25T14:15:29.660Z,33.87
2022-08-25T14:18:18.194Z,33.61
2022-08-25T14:20:50.791Z,33.86
2022-08-25T14:23:22.445Z,33.40
2022-08-25T14:25:52.112Z,33.31
2022-08-25T14:28:23.010Z,33.57
2022-08-25T14:31:02.288Z,33.57
2022-08-25T14:33:37.496Z,33.52
2022-08-25T14:36:06.877Z,33.63
2022-08-25T14:38:35.578Z,33.78
2022-08-25T14:43:39.861Z,33.65
2022-08-25T14:46:18.045Z,33.74
2022-08-25T14:48:52.227Z,33.54
2022-08-25T14:51:20.457Z,33.60
2022-08-25T14:53:48.288Z,33.20
2022-08-25T14:56:16.436Z,33.29
2022-08-25T14:58:51.022Z,33.46
2022-08-25T15:01:28.419Z,33.58
2022-08-25T15:04:13.195Z,33.48
2022-08-25T15:06:44.865Z,33.18
2022-08-25T15:09:16.618Z,33.36
2022-08-25T15:11:47.325Z,33.51
2022-08-25T15:14:28.634Z,33.30
2022-08-25T15:17:02.025Z,33.29
2022-08-25T15:19:30.327Z,33.08
2022-08-25T15:21:59.355Z,32.95
2022-08-25T15:24:28.949Z,33.15
2022-08-25T15:27:03.953Z,33.19
2022-08-25T15:29:34.944Z,33.11
2022-08-25T15:32:07.099Z,32.92
2022-08-25T15:34:36.612Z,33.00
2022-08-25T15:37:16.211Z,32.93
2022-08-25T15:39:45.679Z,32.97
2022-08-25T15:42:14.001Z,32.91
2022-08-25T15:44:42.491Z,32.88
2022-08-25T15:47:24.166Z,32.85
2022-08-25T15:50:03.952Z,32.77
2022-08-25T15:52:46.066Z,32.87
2022-08-25T15:55:15.100Z,32.84
2022-08-25T15:57:43.702Z,32.82
2022-08-25T16:00:13.643Z,32.60
2022-08-25T16:02:45.403Z,32.50
2022-08-25T16:05:16.493Z,32.59
2022-08-25T16:07:51.796Z,32.68
2022-08-25T16:10:20.026Z,32.57
2022-08-25T16:12:48.175Z,32.59
2022-08-25T16:15:16.176Z,32.53
2022-08-25T16:17:47.006Z,32.46
2022-08-25T16:20:20.826Z,32.43
2022-08-25T16:22:51.060Z,32.43
2022-08-25T16:25:19.672Z,32.31
2022-08-25T16:27:48.199Z,32.31
2022-08-25T16:30:17.783Z,32.38
2022-08-25T16:32:46.813Z,32.20
2022-08-25T16:35:14.538Z,32.34
2022-08-25T16:37:42.648Z,32.31
2022-08-25T16:40:14.805Z,32.27
2022-08-25T16:42:42.744Z,32.31
2022-08-25T16:45:11.899Z,32.25
2022-08-25T16:47:39.755Z,31.82
2022-08-25T16:50:11.461Z,32.05
2022-08-25T16:52:58.291Z,32.10
2022-08-25T16:55:29.119Z,32.08
2022-08-25T16:58:07.894Z,32.07
2022-08-25T17:00:38.250Z,32.02
2022-08-25T17:03:07.715Z,31.93
2022-08-25T17:05:40.775Z,31.95
2022-08-25T17:08:27.381Z,31.88
2022-08-25T17:11:03.735Z,31.83
2022-08-25T17:13:33.118Z,31.73
2022-08-25T17:16:03.177Z,31.49
2022-08-25T17:18:31.273Z,31.29
2022-08-25T17:21:05.814Z,31.42
2022-08-25T17:23:35.368Z,31.34
2022-08-25T17:26:05.371Z,31.14
2022-08-25T17:28:34.073Z,31.18
2022-08-25T17:31:04.705Z,31.11
2022-08-25T17:33:32.936Z,30.99
2022-08-25T17:36:00.697Z,30.93
2022-08-25T17:38:30.304Z,30.76
2022-08-25T17:41:03.572Z,30.69
2022-08-25T17:43:35.886Z,30.50
2022-08-25T17:46:06.494Z,30.61
2022-08-25T17:48:36.147Z,30.35
2022-08-25T17:51:05.273Z,30.42
2022-08-25T17:53:35.071Z,30.19
2022-08-25T17:56:06.551Z,30.25
2022-08-25T17:58:35.544Z,30.09
2022-08-25T18:01:05.444Z,30.02
2022-08-25T18:03:33.791Z,30.11
2022-08-25T18:06:01.481Z,29.99
2022-08-25T18:08:35.204Z,29.82
2022-08-25T18:11:05.055Z,29.69
2022-08-25T18:13:32.996Z,29.64
2022-08-25T18:16:01.040Z,29.53
2022-08-25T18:18:31.315Z,29.38
2022-08-25T18:20:58.943Z,29.32
2022-08-25T18:23:27.542Z,29.25
2022-08-25T18:26:01.017Z,29.20
2022-08-25T18:28:29.714Z,29.13
2022-08-25T18:30:57.869Z,29.02
2022-08-25T18:33:25.756Z,28.87
2022-08-25T18:35:58.297Z,28.97
2022-08-25T18:38:45.086Z,28.99
2022-08-25T18:41:13.658Z,28.91
2022-08-25T18:43:41.975Z,28.99
2022-08-25T18:46:10.016Z,28.85
2022-08-25T18:48:38.316Z,28.71
2022-08-25T18:51:10.576Z,28.63
2022-08-25T18:53:49.674Z,28.67
2022-08-25T18:56:22.534Z,28.76
2022-08-25T18:58:50.575Z,28.43
2022-08-25T19:01:19.817Z,28.25
2022-08-25T19:03:47.781Z,28.25
2022-08-25T19:06:16.943Z,28.30
2022-08-25T19:08:45.294Z,28.06
2022-08-25T19:11:13.132Z,28.06
2022-08-25T19:13:41.286Z,28.18
2022-08-25T19:16:11.959Z,28.08
2022-08-25T19:18:42.075Z,27.99
2022-08-25T19:21:10.806Z,28.08
2022-08-25T19:23:39.052Z,27.86
2022-08-25T19:26:16.945Z,28.01
2022-08-25T19:28:48.982Z,27.99
2022-08-25T19:31:23.044Z,27.98
2022-08-25T19:33:55.193Z,28.15
2022-08-25T19:36:28.137Z,28.31
2022-08-25T19:38:59.004Z,28.05
2022-08-25T19:41:29.720Z,27.92
2022-08-25T19:43:57.814Z,27.62
2022-08-25T19:46:32.130Z,27.61
2022-08-25T19:49:08.062Z,27.42
2022-08-25T19:51:38.924Z,27.34
2022-08-25T19:54:09.046Z,27.16
2022-08-25T19:56:44.041Z,27.26
2022-08-25T19:59:25.463Z,27.34
2022-08-25T20:01:54.684Z,27.40
2022-08-25T20:04:24.197Z,27.04
2022-08-25T20:06:55.542Z,27.18
2022-08-25T20:09:39.206Z,27.16
2022-08-25T20:12:10.499Z,27.13
2022-08-25T20:14:38.671Z,26.83
2022-08-25T20:17:23.092Z,27.03
2022-08-25T20:19:56.056Z,26.95
2022-08-25T20:22:29.686Z,27.02
2022-08-25T20:25:07.339Z,26.94
2022-08-25T20:27:45.024Z,26.93
2022-08-25T20:30:20.642Z,27.02
2022-08-25T20:32:52.142Z,26.91
2022-08-25T20:35:26.470Z,26.99
2022-08-25T20:37:56.944Z,26.87
2022-08-25T20:40:26.214Z,27.05
2022-08-25T20:42:54.970Z,26.90
2022-08-25T20:45:23.399Z,26.94
2022-08-25T20:47:52.390Z,26.83
2022-08-25T20:50:20.718Z,26.73
2022-08-25T20:52:48.670Z,26.70
2022-08-25T20:55:18.826Z,26.70
2022-08-25T20:57:47.128Z,26.94
2022-08-25T21:00:16.560Z,26.92
2022-08-25T21:02:46.344Z,26.91
2022-08-25T21:05:14.551Z,26.68
2022-08-25T21:07:42.735Z,26.53
2022-08-25T21:10:14.523Z,26.60
2022-08-25T21:12:45.066Z,26.75
2022-08-25T21:15:17.039Z,26.66
2022-08-25T21:17:50.198Z,26.27
2022-08-25T21:20:18.486Z,26.75
2022-08-25T21:22:46.265Z,27.14
2022-08-25T21:25:14.479Z,26.78
2022-08-25T21:27:43.474Z,26.55
2022-08-25T21:30:12.389Z,27.01
2022-08-25T21:32:40.115Z,27.18
2022-08-25T21:35:23.879Z,26.95
2022-08-25T21:37:53.887Z,26.78
2022-08-25T21:40:23.145Z,26.74
2022-08-25T21:42:52.491Z,26.67
2022-08-25T21:45:21.989Z,26.74
2022-08-25T21:47:50.286Z,26.76
2022-08-25T21:50:20.387Z,26.18
2022-08-25T21:52:48.198Z,26.24
2022-08-25T21:55:23.435Z,26.31
2022-08-25T21:57:51.524Z,26.18
2022-08-25T22:00:21.273Z,26.39
2022-08-25T22:02:50.044Z,26.28
2022-08-25T22:05:18.263Z,26.24
2022-08-25T22:07:45.931Z,26.58
2022-08-25T22:10:16.777Z,26.08
2022-08-25T22:12:48.931Z,26.08
2022-08-25T22:15:18.395Z,26.42
2022-08-25T22:17:48.005Z,26.52
2022-08-25T22:20:18.422Z,26.41
2022-08-25T22:22:46.426Z,25.99
2022-08-25T22:25:14.555Z,26.44
2022-08-25T22:27:42.509Z,26.44
2022-08-25T22:30:11.464Z,26.42
2022-08-25T22:32:39.236Z,26.34
2022-08-25T22:35:08.037Z,26.07
2022-08-25T22:37:37.643Z,25.76
2022-08-25T22:40:06.286Z,26.03
2022-08-25T22:42:33.999Z,25.87
2022-08-25T22:45:02.016Z,25.68
2022-08-25T22:47:31.261Z,25.72
2022-08-25T22:49:59.239Z,25.47
2022-08-25T22:52:33.334Z,25.67
2022-08-25T22:55:02.993Z,25.45
2022-08-25T22:57:31.676Z,25.50
2022-08-25T22:59:59.442Z,25.48
2022-08-25T23:02:30.497Z,25.61
2022-08-25T23:05:00.949Z,25.65
2022-08-25T23:07:29.150Z,25.38
2022-08-25T23:09:59.786Z,25.53
2022-08-25T23:12:27.815Z,25.45
2022-08-25T23:14:55.933Z,25.46
2022-08-25T23:17:23.614Z,25.51
2022-08-25T23:19:51.620Z,25.81
2022-08-25T23:22:19.869Z,25.96
2022-08-25T23:24:52.014Z,25.75
2022-08-25T23:27:21.920Z,25.71
2022-08-25T23:29:50.230Z,25.84
2022-08-25T23:32:18.529Z,25.78
2022-08-25T23:34:47.342Z,25.68
2022-08-25T23:37:18.308Z,25.42
2022-08-25T23:39:49.898Z,25.49
2022-08-25T23:42:19.853Z,25.47
2022-08-25T23:44:49.220Z,25.37
2022-08-25T23:47:18.570Z,25.44
2022-08-25T23:49:48.287Z,25.48
2022-08-25T23:52:17.726Z,25.46
2022-08-25T23:54:46.163Z,25.26
2022-08-25T23:57:14.061Z,25.51
2022-08-25T23:59:43.312Z,25.18
